Time;durP1;ratioP1;P1;durP2;ratioP2;P2;SDS_P1;SDS_P2;PMS_P1;PMS_P2;Temp;Humidity;BMP_temperature;BMP_pressure;BME280_temperature;BME280_humidity;BME280_pressure;Samples;Min_cycle;Max_cycle;Signal;HPM_P1;HPM_P2
2022/03/21 00:01:25;;;;;;;34.13;27.27;;;4.70;65.90;;;;;;5034679;28;20095;-81
2022/03/21 00:03:52;;;;;;;35.33;28.10;;;4.70;65.90;;;;;;5032181;28;20045;-81
2022/03/21 00:06:19;;;;;;;39.05;29.60;;;4.70;65.90;;;;;;5033000;28;20056;-80
2022/03/21 00:08:46;;;;;;;35.78;28.88;;;4.70;65.90;;;;;;5034998;28;20046;-81
2022/03/21 00:11:13;;;;;;;38.25;29.30;;;4.60;65.90;;;;;;5034318;28;20477;-80
2022/03/21 00:13:40;;;;;;;39.20;29.60;;;4.60;66.00;;;;;;5034570;28;20095;-81
2022/03/21 00:16:07;;;;;;;38.15;28.85;;;4.50;66.00;;;;;;5034046;28;20102;-81
2022/03/21 00:18:35;;;;;;;37.05;28.08;;;4.50;66.00;;;;;;5030422;28;20510;-80
2022/03/21 00:21:02;;;;;;;36.00;29.48;;;4.50;66.00;;;;;;5036597;28;20053;-81
2022/03/21 00:23:30;;;;;;;41.72;30.40;;;4.50;66.00;;;;;;5034459;28;20406;-80
2022/03/21 00:25:57;;;;;;;40.90;31.40;;;4.50;66.10;;;;;;5034068;28;20119;-80
2022/03/21 00:28:24;;;;;;;39.80;29.50;;;4.40;66.10;;;;;;5035750;28;20048;-81
2022/03/21 00:30:51;;;;;;;40.08;30.17;;;4.40;66.20;;;;;;5035573;28;20099;-81
2022/03/21 00:33:19;;;;;;;40.20;30.65;;;4.40;66.20;;;;;;5036963;28;20041;-80
2022/03/21 00:35:48;;;;;;;43.20;31.00;;;4.40;66.20;;;;;;5039905;28;20049;-79
2022/03/21 00:38:17;;;;;;;43.00;30.45;;;4.40;66.30;;;;;;5038096;28;20052;-80
2022/03/21 00:40:45;;;;;;;39.08;30.50;;;4.30;66.30;;;;;;5037784;28;20056;-79
2022/03/21 00:43:23;;;;;;;38.45;29.65;;;4.30;66.40;;;;;;5038258;28;20056;-81
2022/03/21 00:45:52;;;;;;;40.15;30.52;;;4.20;66.40;;;;;;5035475;28;20045;-80
2022/03/21 00:48:21;;;;;;;37.53;29.83;;;4.20;66.40;;;;;;5036630;28;20049;-81
2022/03/21 00:50:48;;;;;;;43.33;32.38;;;4.20;66.50;;;;;;5037922;28;20049;-82
2022/03/21 00:53:16;;;;;;;42.65;33.03;;;4.20;66.60;;;;;;5037916;28;20049;-81
2022/03/21 00:55:44;;;;;;;48.15;34.08;;;4.10;66.60;;;;;;5037574;28;20452;-81
2022/03/21 00:58:11;;;;;;;46.13;33.10;;;4.10;66.60;;;;;;5038058;28;20045;-80
2022/03/21 01:00:39;;;;;;;39.63;31.13;;;4.10;66.70;;;;;;5018084;28;20049;-81
2022/03/21 01:03:06;;;;;;;39.85;30.38;;;4.10;66.70;;;;;;5039632;28;20046;-80
2022/03/21 01:05:33;;;;;;;39.25;29.60;;;4.10;66.70;;;;;;5036408;28;20049;-81
2022/03/21 01:08:02;;;;;;;42.78;32.72;;;4.00;66.80;;;;;;5037774;28;20064;-81
2022/03/21 01:10:30;;;;;;;39.10;30.35;;;4.00;66.80;;;;;;5037406;28;20055;-80
2022/03/21 01:12:57;;;;;;;41.65;31.75;;;4.00;66.80;;;;;;5035612;28;20092;-81
2022/03/21 01:15:26;;;;;;;44.58;32.08;;;4.00;66.90;;;;;;5034878;28;20057;-81
2022/03/21 01:17:55;;;;;;;39.25;29.60;;;3.90;66.90;;;;;;5039517;28;20049;-81
2022/03/21 01:20:23;;;;;;;41.38;32.03;;;3.90;66.90;;;;;;5037723;28;20057;-81
2022/03/21 01:22:51;;;;;;;40.67;30.67;;;3.90;66.90;;;;;;5037382;28;20571;-81
2022/03/21 01:25:18;;;;;;;43.17;31.92;;;3.90;67.00;;;;;;5036993;28;20053;-81
2022/03/21 01:27:46;;;;;;;44.00;30.75;;;3.90;67.00;;;;;;5032811;28;20517;-80
2022/03/21 01:30:14;;;;;;;38.88;30.77;;;3.80;67.10;;;;;;5037359;28;20061;-83
2022/03/21 01:32:42;;;;;;;37.95;29.05;;;3.80;67.10;;;;;;5035924;28;20053;-81
2022/03/21 01:35:16;;;;;;;38.15;29.48;;;3.80;67.20;;;;;;5037383;28;20045;-80
2022/03/21 01:37:45;;;;;;;38.33;29.17;;;3.80;67.20;;;;;;5036837;28;20051;-80
2022/03/21 01:40:12;;;;;;;38.40;30.02;;;3.70;67.20;;;;;;5035972;28;20049;-80
2022/03/21 01:42:43;;;;;;;35.72;28.55;;;3.70;67.20;;;;;;5032893;28;20061;-80
2022/03/21 01:45:11;;;;;;;35.63;27.20;;;3.70;67.20;;;;;;5037450;28;20051;-81
2022/03/21 01:47:38;;;;;;;36.75;28.75;;;3.70;67.30;;;;;;5037576;28;20108;-81
2022/03/21 01:50:06;;;;;;;37.38;28.35;;;3.70;67.30;;;;;;5036879;28;20053;-81
2022/03/21 01:52:36;;;;;;;38.03;29.58;;;3.60;67.30;;;;;;5036349;28;20048;-82
2022/03/21 01:57:51;;;;;;;34.45;26.75;;;3.60;67.30;;;;;;5020491;28;20095;-80
2022/03/21 02:00:18;;;;;;;35.47;28.27;;;3.50;67.30;;;;;;5035299;28;20054;-81
2022/03/21 02:02:45;;;;;;;36.22;28.30;;;3.60;67.30;;;;;;5038286;28;20054;-81
2022/03/21 02:05:13;;;;;;;35.03;27.95;;;3.50;67.40;;;;;;5036593;28;20080;-81
2022/03/21 02:07:39;;;;;;;37.20;28.30;;;3.50;67.40;;;;;;5036315;28;20049;-80
2022/03/21 02:10:07;;;;;;;37.55;27.80;;;3.50;67.40;;;;;;5036129;28;20571;-81
2022/03/21 02:12:34;;;;;;;36.20;27.70;;;3.50;67.40;;;;;;5032299;28;20136;-81
2022/03/21 02:15:05;;;;;;;34.92;28.55;;;3.50;67.50;;;;;;5038537;28;20103;-81
2022/03/21 02:17:35;;;;;;;36.63;28.35;;;3.40;67.50;;;;;;5035102;28;20096;-80
2022/03/21 02:20:04;;;;;;;36.08;27.27;;;3.40;67.60;;;;;;5036399;28;20103;-80
2022/03/21 02:22:44;;;;;;;33.40;26.88;;;3.40;67.60;;;;;;5036040;28;20088;-81
2022/03/21 02:25:32;;;;;;;39.33;27.83;;;3.40;67.60;;;;;;5036345;28;20049;-83
2022/03/21 02:28:01;;;;;;;36.33;27.65;;;3.40;67.70;;;;;;5034683;28;20100;-80
2022/03/21 02:30:30;;;;;;;37.08;27.80;;;3.40;67.70;;;;;;5032571;28;20104;-81
2022/03/21 02:32:59;;;;;;;38.67;29.63;;;3.40;67.70;;;;;;5038103;28;20049;-80
2022/03/21 02:35:29;;;;;;;36.13;28.25;;;3.30;67.70;;;;;;5035721;28;20053;-80
2022/03/21 02:37:57;;;;;;;34.85;26.98;;;3.40;67.80;;;;;;5036037;28;20510;-80
2022/03/21 02:40:24;;;;;;;35.83;28.02;;;3.30;67.80;;;;;;5035986;28;20095;-80
2022/03/21 02:42:52;;;;;;;38.38;28.15;;;3.30;67.80;;;;;;5033536;28;20045;-82
2022/03/21 02:45:19;;;;;;;37.40;27.23;;;3.30;67.80;;;;;;5034165;28;20493;-82
2022/03/21 02:47:46;;;;;;;33.80;26.63;;;3.20;67.90;;;;;;5037644;28;20111;-81
2022/03/21 02:50:17;;;;;;;37.75;27.27;;;3.30;67.90;;;;;;5035483;28;20046;-82
2022/03/21 02:52:46;;;;;;;37.53;27.67;;;3.20;67.90;;;;;;5035356;28;20107;-80
2022/03/21 02:55:13;;;;;;;36.13;26.98;;;3.20;68.00;;;;;;5035872;28;20045;-80
2022/03/21 02:57:40;;;;;;;35.95;27.70;;;3.20;68.00;;;;;;5031750;28;20123;-80
2022/03/21 03:00:07;;;;;;;35.00;27.30;;;3.20;68.00;;;;;;5037142;28;20046;-82
2022/03/21 03:02:34;;;;;;;36.90;27.67;;;3.20;68.00;;;;;;5036072;28;20057;-81
2022/03/21 03:05:02;;;;;;;39.17;27.83;;;3.20;68.00;;;;;;5035132;28;20103;-80
2022/03/21 03:07:29;;;;;;;37.78;26.92;;;3.20;68.10;;;;;;5035433;28;20099;-81
2022/03/21 03:09:55;;;;;;;34.42;26.38;;;3.10;68.10;;;;;;5033420;28;20045;-81
2022/03/21 03:12:22;;;;;;;32.72;25.98;;;3.10;68.10;;;;;;5032781;28;20057;-81
2022/03/21 03:14:50;;;;;;;38.78;27.45;;;3.10;68.20;;;;;;5037487;28;20494;-81
2022/03/21 03:17:17;;;;;;;31.88;25.65;;;3.10;68.20;;;;;;5035333;28;20057;-81
2022/03/21 03:19:44;;;;;;;34.35;25.88;;;3.10;68.20;;;;;;5034968;28;20053;-81
2022/03/21 03:22:13;;;;;;;36.10;25.42;;;3.00;68.20;;;;;;5035279;28;20052;-81
2022/03/21 03:24:40;;;;;;;35.50;25.77;;;3.00;68.20;;;;;;5031084;28;20046;-81
2022/03/21 03:27:07;;;;;;;34.95;25.42;;;3.00;68.30;;;;;;5036559;28;20115;-80
2022/03/21 03:29:34;;;;;;;32.55;25.33;;;3.00;68.30;;;;;;5032590;28;20045;-80
2022/03/21 03:32:03;;;;;;;32.95;24.90;;;3.00;68.30;;;;;;5035113;28;20054;-80
2022/03/21 03:34:32;;;;;;;33.47;24.45;;;3.00;68.30;;;;;;5034829;28;20750;-81
2022/03/21 03:36:59;;;;;;;34.55;24.95;;;2.90;68.30;;;;;;5033554;28;20464;-80
2022/03/21 03:39:27;;;;;;;35.72;24.95;;;3.00;68.40;;;;;;5031901;28;20045;-81
2022/03/21 03:41:54;;;;;;;31.35;24.23;;;2.90;68.40;;;;;;5036833;28;20096;-82
2022/03/21 03:44:23;;;;;;;31.85;24.15;;;2.90;68.40;;;;;;5034977;28;20492;-82
2022/03/21 03:46:50;;;;;;;30.20;23.45;;;2.90;68.40;;;;;;5034745;28;20045;-83
2022/03/21 03:49:17;;;;;;;32.20;24.98;;;2.90;68.40;;;;;;5034466;28;20056;-82
2022/03/21 03:51:43;;;;;;;34.15;24.35;;;2.90;68.50;;;;;;5031263;28;20550;-82
2022/03/21 03:54:10;;;;;;;31.23;24.35;;;2.90;68.50;;;;;;5035114;28;20495;-80
2022/03/21 03:56:37;;;;;;;29.00;22.75;;;2.90;68.50;;;;;;5035566;28;20050;-80
2022/03/21 03:59:04;;;;;;;32.50;24.25;;;2.90;68.50;;;;;;5034701;28;20064;-80
2022/03/21 04:01:31;;;;;;;32.05;24.35;;;2.80;68.50;;;;;;5034665;28;20053;-81
2022/03/21 04:04:00;;;;;;;33.63;24.83;;;2.90;68.50;;;;;;5032058;28;20502;-80
2022/03/21 04:06:27;;;;;;;33.20;25.02;;;2.80;68.50;;;;;;5031239;28;20111;-80
2022/03/21 04:08:54;;;;;;;31.77;23.50;;;2.80;68.50;;;;;;5036622;28;20053;-80
2022/03/21 04:11:21;;;;;;;34.30;24.95;;;2.80;68.50;;;;;;5034585;28;20049;-80
2022/03/21 04:13:48;;;;;;;28.17;22.17;;;2.80;68.50;;;;;;5034718;28;20099;-83
2022/03/21 04:16:16;;;;;;;30.88;24.52;;;2.70;68.50;;;;;;5034611;28;20052;-81
2022/03/21 04:18:43;;;;;;;31.75;24.08;;;2.80;68.50;;;;;;5030456;28;20055;-81
2022/03/21 04:21:26;;;;;;;30.42;23.23;;;2.70;68.60;;;;;;5031443;28;20130;-81
2022/03/21 04:23:54;;;;;;;31.92;25.20;;;2.70;68.60;;;;;;5036492;28;20099;-81
2022/03/21 04:26:21;;;;;;;33.55;23.85;;;2.70;68.60;;;;;;5034449;28;20056;-81
2022/03/21 04:28:49;;;;;;;30.80;23.55;;;2.70;68.60;;;;;;5034241;28;20041;-82
2022/03/21 04:31:16;;;;;;;31.23;22.95;;;2.70;68.60;;;;;;5034257;28;20057;-81
2022/03/21 04:33:43;;;;;;;32.40;24.20;;;2.60;68.60;;;;;;5030529;28;20049;-82
2022/03/21 04:36:10;;;;;;;34.55;23.58;;;2.70;68.60;;;;;;5033987;28;20049;-81
2022/03/21 04:38:37;;;;;;;30.35;22.45;;;2.60;68.60;;;;;;5033665;28;20112;-81
2022/03/21 04:41:04;;;;;;;30.83;22.95;;;2.60;68.60;;;;;;5034208;28;20563;-81
2022/03/21 04:43:30;;;;;;;33.33;23.85;;;2.60;68.70;;;;;;5034395;28;20054;-81
2022/03/21 04:45:58;;;;;;;30.92;22.67;;;2.60;68.70;;;;;;5032385;28;20080;-80
2022/03/21 04:48:25;;;;;;;28.90;21.75;;;2.60;68.70;;;;;;5031371;28;20532;-80
2022/03/21 04:50:52;;;;;;;29.48;22.55;;;2.60;68.70;;;;;;5036208;28;20461;-80
2022/03/21 04:53:18;;;;;;;28.48;22.35;;;2.60;68.70;;;;;;5034122;28;20096;-80
2022/03/21 04:55:45;;;;;;;32.95;21.45;;;2.60;68.70;;;;;;5034219;28;20461;-81
2022/03/21 04:58:13;;;;;;;32.03;23.45;;;2.50;68.80;;;;;;5034147;28;20048;-82
2022/03/21 05:00:40;;;;;;;29.63;22.25;;;2.60;68.80;;;;;;5030003;28;20038;-81
2022/03/21 05:03:07;;;;;;;29.58;21.92;;;2.50;68.80;;;;;;5035663;28;20095;-80
2022/03/21 05:05:43;;;;;;;29.05;21.83;;;2.50;68.80;;;;;;5035204;28;20413;-80
2022/03/21 05:08:11;;;;;;;29.10;21.90;;;2.50;68.80;;;;;;5034035;28;20097;-80
2022/03/21 05:10:38;;;;;;;29.25;22.25;;;2.50;68.80;;;;;;5034068;28;20506;-81
2022/03/21 05:13:06;;;;;;;29.73;21.45;;;2.50;68.80;;;;;;5033396;28;20053;-80
2022/03/21 05:15:34;;;;;;;28.83;21.60;;;2.50;68.80;;;;;;5032456;28;20429;-81
2022/03/21 05:18:02;;;;;;;29.90;21.90;;;2.40;68.90;;;;;;5039447;28;20395;-80
2022/03/21 05:20:29;;;;;;;31.77;21.83;;;2.40;68.90;;;;;;5037611;28;20111;-80
2022/03/21 05:31:13;;;;;;;26.90;20.52;;;2.40;69.00;;;;;;5036721;28;20045;-80
2022/03/21 05:36:28;;;;;;;31.15;22.00;;;2.40;69.20;;;;;;5034344;28;20523;-80
2022/03/21 05:38:58;;;;;;;28.13;20.88;;;2.40;69.20;;;;;;5039269;28;20058;-80
2022/03/21 05:41:25;;;;;;;29.73;21.85;;;2.40;69.20;;;;;;5037241;28;20057;-81
2022/03/21 05:43:53;;;;;;;27.67;21.35;;;2.40;69.20;;;;;;5037158;28;20041;-80
2022/03/21 05:46:21;;;;;;;28.20;21.38;;;2.30;69.20;;;;;;5036665;28;20126;-80
2022/03/21 05:48:51;;;;;;;28.63;20.92;;;2.40;69.20;;;;;;5033995;28;20518;-80
2022/03/21 05:51:23;;;;;;;31.65;21.23;;;2.40;69.20;;;;;;5035657;28;20057;-80
2022/03/21 05:53:51;;;;;;;28.42;20.88;;;2.40;69.30;;;;;;5036935;28;20046;-83
2022/03/21 05:56:18;;;;;;;29.40;20.75;;;2.30;69.30;;;;;;5036861;28;20049;-82
2022/03/21 05:58:45;;;;;;;30.80;21.98;;;2.30;69.30;;;;;;5036467;28;20106;-80
2022/03/21 06:01:15;;;;;;;26.40;20.42;;;2.30;69.30;;;;;;5036821;28;20053;-81
2022/03/21 06:03:43;;;;;;;28.35;20.80;;;2.30;69.30;;;;;;5032987;28;20480;-80
2022/03/21 06:06:10;;;;;;;26.05;20.05;;;2.30;69.30;;;;;;5037163;28;20053;-80
2022/03/21 06:08:37;;;;;;;30.10;19.92;;;2.30;69.30;;;;;;5035963;28;20053;-81
2022/03/21 06:11:04;;;;;;;28.83;20.65;;;2.30;69.40;;;;;;5036563;28;20054;-80
2022/03/21 06:13:33;;;;;;;27.77;19.77;;;2.30;69.40;;;;;;5036328;28;20518;-80
2022/03/21 06:16:03;;;;;;;30.00;22.17;;;2.20;69.40;;;;;;5035122;28;20460;-82
2022/03/21 06:18:34;;;;;;;27.63;20.65;;;2.30;69.40;;;;;;5032911;28;20042;-80
2022/03/21 06:21:03;;;;;;;30.88;19.85;;;2.30;69.40;;;;;;5038320;28;20568;-81
2022/03/21 06:23:30;;;;;;;28.75;20.50;;;2.30;69.50;;;;;;5035291;28;20049;-82
2022/03/21 06:25:58;;;;;;;25.83;19.52;;;2.20;69.50;;;;;;5035644;28;20093;-82
2022/03/21 06:28:27;;;;;;;24.92;19.40;;;2.20;69.50;;;;;;5035978;28;20096;-82
2022/03/21 06:30:54;;;;;;;26.02;19.58;;;2.30;69.60;;;;;;5033907;28;20054;-81
2022/03/21 06:33:25;;;;;;;27.05;19.88;;;2.20;69.60;;;;;;5038185;28;20064;-80
2022/03/21 06:35:52;;;;;;;30.17;20.10;;;2.20;69.70;;;;;;5036029;28;20053;-81
2022/03/21 06:38:19;;;;;;;26.40;19.02;;;2.30;69.70;;;;;;5035669;28;20536;-80
2022/03/21 06:40:46;;;;;;;25.00;19.08;;;2.20;69.70;;;;;;5035569;28;20418;-80
2022/03/21 06:43:16;;;;;;;24.85;18.65;;;2.30;69.80;;;;;;5035473;28;20041;-80
2022/03/21 06:45:44;;;;;;;27.13;20.05;;;2.30;69.80;;;;;;5032028;28;20049;-80
2022/03/21 06:48:11;;;;;;;24.38;18.65;;;2.20;69.80;;;;;;5035883;28;20449;-81
2022/03/21 06:50:38;;;;;;;24.23;18.95;;;2.30;69.90;;;;;;5036132;28;20068;-80
2022/03/21 06:53:05;;;;;;;25.80;19.63;;;2.30;69.90;;;;;;5035613;28;20107;-80
2022/03/21 06:55:32;;;;;;;25.92;19.88;;;2.30;70.00;;;;;;5035486;28;20060;-80
2022/03/21 06:58:01;;;;;;;25.30;20.05;;;2.30;70.00;;;;;;5033619;28;20570;-80
2022/03/21 07:00:28;;;;;;;25.05;18.95;;;2.30;70.10;;;;;;5032089;28;20442;-81
2022/03/21 07:02:55;;;;;;;25.05;19.15;;;2.30;70.10;;;;;;5037310;28;20065;-80
2022/03/21 07:05:22;;;;;;;27.25;19.33;;;2.30;70.20;;;;;;5035182;28;20057;-81
2022/03/21 07:07:50;;;;;;;28.05;20.38;;;2.40;70.20;;;;;;5035206;28;20058;-81
2022/03/21 07:10:17;;;;;;;26.08;18.48;;;2.40;70.30;;;;;;5035246;28;20057;-81
2022/03/21 07:12:44;;;;;;;28.02;20.50;;;2.40;70.30;;;;;;5031296;28;20056;-81
2022/03/21 07:15:11;;;;;;;26.90;19.40;;;2.40;70.30;;;;;;5035578;28;20042;-81
2022/03/21 07:17:40;;;;;;;27.42;19.48;;;2.40;70.40;;;;;;5035759;28;20057;-81
2022/03/21 07:20:09;;;;;;;31.02;22.00;;;2.40;70.40;;;;;;5034981;28;20123;-81
2022/03/21 07:22:36;;;;;;;32.25;22.25;;;2.40;70.40;;;;;;5034923;28;20472;-80
2022/03/21 07:25:07;;;;;;;26.60;20.30;;;2.50;70.50;;;;;;5034496;28;20048;-81
2022/03/21 07:27:34;;;;;;;26.08;20.83;;;2.50;70.50;;;;;;5030504;28;20422;-81
2022/03/21 07:30:01;;;;;;;31.55;22.25;;;2.50;70.60;;;;;;5036538;28;20053;-81
2022/03/21 07:32:28;;;;;;;27.50;22.02;;;2.50;70.60;;;;;;5034695;28;20087;-80
2022/03/21 07:34:55;;;;;;;31.15;21.75;;;2.60;70.60;;;;;;5034936;28;20076;-80
2022/03/21 07:37:21;;;;;;;34.05;24.42;;;2.60;70.70;;;;;;5034285;28;20049;-81
2022/03/21 07:39:48;;;;;;;30.15;23.92;;;2.60;70.70;;;;;;5031408;28;20502;-80
2022/03/21 07:42:16;;;;;;;32.47;23.55;;;2.70;70.70;;;;;;5033784;28;20103;-80
2022/03/21 07:47:29;;;;;;;31.65;23.52;;;2.80;70.80;;;;;;5034464;28;20572;-80
2022/03/21 07:49:56;;;;;;;30.58;23.58;;;2.80;70.90;;;;;;5034607;28;20568;-80
2022/03/21 07:52:23;;;;;;;30.02;24.00;;;2.90;70.90;;;;;;5034667;28;20052;-80
2022/03/21 07:54:53;;;;;;;33.30;23.20;;;2.90;70.90;;;;;;5031679;28;20045;-81
2022/03/21 07:57:23;;;;;;;35.95;25.63;;;2.90;71.00;;;;;;5032739;28;20530;-81
2022/03/21 07:59:51;;;;;;;31.90;24.90;;;3.00;71.10;;;;;;5034942;28;20049;-80
2022/03/21 08:02:19;;;;;;;33.95;23.73;;;3.10;71.10;;;;;;5034380;28;20473;-80
2022/03/21 08:04:47;;;;;;;33.38;25.17;;;3.10;71.20;;;;;;5034813;28;20041;-80
2022/03/21 08:07:20;;;;;;;31.17;23.85;;;3.20;71.30;;;;;;5044494;28;20506;-80
2022/03/21 08:09:47;;;;;;;31.23;23.77;;;3.30;71.40;;;;;;5030863;28;20103;-80
2022/03/21 08:12:13;;;;;;;32.20;25.20;;;3.30;71.40;;;;;;5034018;28;20053;-80
2022/03/21 08:14:40;;;;;;;34.15;24.60;;;3.40;71.40;;;;;;5034055;28;20053;-80
2022/03/21 08:17:08;;;;;;;31.25;24.55;;;3.40;71.50;;;;;;5034492;28;20084;-81
2022/03/21 08:19:35;;;;;;;31.90;24.73;;;3.50;71.60;;;;;;5033039;28;20570;-81
2022/03/21 08:22:07;;;;;;;30.63;23.65;;;3.60;71.60;;;;;;5028595;28;20068;-80
2022/03/21 08:24:37;;;;;;;30.95;24.50;;;3.60;71.70;;;;;;5028885;28;20038;-80
2022/03/21 08:27:07;;;;;;;33.35;23.98;;;3.70;71.70;;;;;;5042378;28;20045;-80
2022/03/21 08:29:34;;;;;;;31.13;23.60;;;3.80;71.80;;;;;;5042705;28;20061;-80
2022/03/21 08:32:01;;;;;;;29.88;23.33;;;3.90;71.80;;;;;;5038731;28;20100;-80
2022/03/21 08:34:29;;;;;;;30.10;23.75;;;4.00;71.80;;;;;;5033930;28;20139;-80
2022/03/21 08:36:55;;;;;;;33.10;24.80;;;4.10;71.80;;;;;;5031993;28;20506;-81
2022/03/21 08:39:22;;;;;;;32.63;23.65;;;4.20;71.80;;;;;;5031555;28;20100;-80
2022/03/21 08:41:49;;;;;;;31.27;23.45;;;4.30;71.90;;;;;;5045652;28;20551;-80
2022/03/21 08:44:19;;;;;;;29.85;22.90;;;4.40;71.90;;;;;;5036145;28;20045;-80
2022/03/21 08:46:47;;;;;;;32.83;23.48;;;4.50;71.90;;;;;;5033900;28;20053;-80
2022/03/21 08:49:23;;;;;;;32.03;22.77;;;4.60;72.00;;;;;;5034708;28;20049;-80
2022/03/21 08:51:59;;;;;;;33.40;22.77;;;4.70;72.00;;;;;;5035887;28;20417;-80
2022/03/21 08:54:28;;;;;;;30.67;23.65;;;4.90;72.10;;;;;;5034386;28;20123;-80
2022/03/21 08:56:55;;;;;;;32.78;23.95;;;5.00;72.10;;;;;;5039250;28;20506;-80
2022/03/21 08:59:22;;;;;;;31.10;23.30;;;5.10;72.20;;;;;;5037682;28;20425;-80
2022/03/21 09:01:49;;;;;;;29.20;22.05;;;5.20;72.20;;;;;;5036505;28;20232;-80
2022/03/21 09:04:16;;;;;;;30.35;22.95;;;5.40;72.20;;;;;;5037187;28;20049;-80
2022/03/21 09:06:43;;;;;;;30.05;21.63;;;5.50;72.20;;;;;;5033644;28;20053;-80
2022/03/21 09:09:10;;;;;;;26.73;20.77;;;5.70;72.10;;;;;;5037935;28;20095;-80
2022/03/21 09:11:38;;;;;;;29.38;21.73;;;5.80;72.20;;;;;;5036330;28;20564;-80
2022/03/21 09:14:07;;;;;;;30.45;21.88;;;5.90;72.20;;;;;;5037191;28;20049;-80
2022/03/21 09:16:34;;;;;;;30.45;22.15;;;6.10;72.20;;;;;;5037781;28;20045;-80
2022/03/21 09:19:01;;;;;;;31.95;21.42;;;6.30;72.30;;;;;;5036582;28;20417;-80
2022/03/21 09:21:28;;;;;;;30.13;22.95;;;6.40;72.30;;;;;;5033915;28;20489;-80
2022/03/21 09:23:56;;;;;;;29.95;21.88;;;6.60;72.40;;;;;;5039669;28;20564;-80
2022/03/21 09:26:23;;;;;;;30.67;22.15;;;6.80;72.60;;;;;;5037638;28;20091;-81
2022/03/21 09:28:50;;;;;;;29.63;20.95;;;6.90;72.80;;;;;;5037261;28;20053;-80
2022/03/21 09:31:17;;;;;;;29.65;20.65;;;7.10;72.90;;;;;;5037183;28;20114;-80
2022/03/21 09:34:04;;;;;;;32.53;21.08;;;7.30;72.90;;;;;;5036231;28;20045;-79
2022/03/21 09:36:31;;;;;;;29.00;22.48;;;7.50;72.70;;;;;;5033182;28;20285;-80
2022/03/21 09:38:58;;;;;;;29.63;21.23;;;7.60;72.60;;;;;;5037332;28;20110;-80
2022/03/21 09:41:27;;;;;;;29.08;21.23;;;7.90;72.60;;;;;;5037030;28;20050;-80
2022/03/21 09:43:56;;;;;;;30.98;23.00;;;8.00;72.60;;;;;;5037165;28;20564;-80
2022/03/21 09:46:23;;;;;;;35.60;25.05;;;8.20;72.70;;;;;;5037097;28;20063;-80
2022/03/21 09:48:53;;;;;;;30.13;23.38;;;8.40;72.90;;;;;;5034211;28;20046;-80
2022/03/21 09:51:24;;;;;;;33.17;23.98;;;8.60;73.10;;;;;;5035070;28;20053;-80
2022/03/21 09:53:56;;;;;;;33.08;23.50;;;8.80;73.20;;;;;;5037425;28;20410;-80
2022/03/21 09:56:25;;;;;;;30.17;22.67;;;9.00;73.20;;;;;;5036933;28;20084;-80
2022/03/21 09:59:09;;;;;;;31.70;24.13;;;9.20;73.00;;;;;;5036801;28;20468;-80
2022/03/21 10:01:38;;;;;;;35.25;25.25;;;9.40;72.90;;;;;;5035654;28;20041;-80
2022/03/21 10:04:07;;;;;;;36.03;25.50;;;9.60;72.80;;;;;;5035996;28;20076;-80
2022/03/21 10:06:36;;;;;;;34.88;23.98;;;9.80;72.70;;;;;;5032483;28;20050;-80
2022/03/21 10:09:19;;;;;;;32.47;24.33;;;10.00;72.70;;;;;;5038644;28;20046;-80
2022/03/21 10:11:54;;;;;;;35.22;26.40;;;10.20;72.60;;;;;;5038226;28;20632;-80
2022/03/21 10:14:29;;;;;;;32.72;24.38;;;10.40;72.50;;;;;;5036635;28;20559;-81
2022/03/21 10:17:11;;;;;;;38.40;26.88;;;10.50;72.40;;;;;;5036666;28;20042;-81
2022/03/21 10:19:46;;;;;;;36.70;25.90;;;10.80;72.20;;;;;;5036109;28;20049;-80
2022/03/21 10:22:16;;;;;;;36.65;24.35;;;10.90;72.10;;;;;;5036507;28;20500;-81
2022/03/21 10:24:46;;;;;;;35.28;25.85;;;11.10;71.90;;;;;;5032642;28;20058;-81
2022/03/21 10:27:28;;;;;;;33.60;25.42;;;11.30;71.70;;;;;;5036626;28;20049;-81
2022/03/21 10:30:00;;;;;;;32.17;23.23;;;11.40;71.60;;;;;;5038224;28;20061;-81
2022/03/21 10:32:54;;;;;;;32.22;25.35;;;11.60;71.40;;;;;;5036258;28;20564;-81
2022/03/21 10:35:23;;;;;;;;;;;11.80;71.30;;;;;;5036262;28;20525;-81
2022/03/21 10:37:58;;;;;;;33.05;25.05;;;11.90;71.10;;;;;;5036114;28;19920;-82
2022/03/21 10:40:45;;;;;;;38.47;26.08;;;12.10;70.90;;;;;;5036063;28;20084;-82
2022/03/21 10:43:16;;;;;;;30.30;23.77;;;12.30;70.70;;;;;;5036091;28;20497;-81
2022/03/21 10:45:51;;;;;;;32.33;25.10;;;12.40;70.40;;;;;;5032337;28;20049;-81
2022/03/21 10:48:25;;;;;;;31.67;25.08;;;12.50;70.10;;;;;;5034710;28;20045;-82
2022/03/21 10:50:56;;;;;;;;;;;12.70;69.70;;;;;;5036719;28;20054;-82
2022/03/21 10:53:28;;;;;;;30.90;24.13;;;12.80;69.30;;;;;;5035837;28;20439;-81
2022/03/21 10:56:00;;;;;;;35.53;23.83;;;12.90;68.90;;;;;;5034429;28;20096;-81
2022/03/21 10:58:34;;;;;;;28.92;22.75;;;13.00;68.60;;;;;;5035609;28;20052;-81
2022/03/21 11:01:23;;;;;;;31.33;23.35;;;13.10;68.30;;;;;;5034248;28;20049;-81
2022/03/21 11:03:56;;;;;;;27.30;21.35;;;13.10;68.10;;;;;;5018765;28;20085;-81
2022/03/21 11:06:27;;;;;;;31.73;22.52;;;13.20;67.90;;;;;;5033196;28;20103;-81
2022/03/21 11:08:55;;;;;;;30.45;22.67;;;13.30;67.70;;;;;;5037682;28;20045;-81
2022/03/21 11:11:22;;;;;;;30.50;23.73;;;13.40;67.50;;;;;;5035387;28;20045;-81
2022/03/21 11:13:50;;;;;;;27.33;22.42;;;13.40;67.40;;;;;;5035315;28;20391;-81
2022/03/21 11:16:18;;;;;;;30.90;23.40;;;13.50;67.30;;;;;;5034327;28;20481;-80
2022/03/21 11:18:47;;;;;;;30.23;22.00;;;13.60;67.20;;;;;;5030951;28;20056;-81
2022/03/21 11:21:18;;;;;;;30.15;22.10;;;13.60;67.00;;;;;;5034617;28;20099;-81
2022/03/21 11:23:46;;;;;;;34.47;22.13;;;13.70;66.90;;;;;;5036450;28;20045;-81
2022/03/21 11:26:45;;;;;;;27.85;21.33;;;13.70;66.70;;;;;;5034995;28;20055;-81
2022/03/21 11:29:44;;;;;;;25.13;20.85;;;13.70;66.60;;;;;;5035103;28;20049;-81
2022/03/21 11:32:28;;;;;;;26.10;20.98;;;13.80;66.30;;;;;;5034802;28;20107;-81
2022/03/21 11:35:04;;;;;;;;;;;13.80;66.20;;;;;;5034111;28;20041;-81
2022/03/21 11:37:33;;;;;;;28.00;20.80;;;13.80;66.10;;;;;;5035041;28;19924;-81
2022/03/21 11:40:38;;;;;;;27.58;20.30;;;13.80;66.10;;;;;;5033391;28;20513;-81
2022/03/21 11:43:21;;;;;;;27.00;21.55;;;13.80;66.10;;;;;;5022031;28;20083;-81
2022/03/21 11:45:55;;;;;;;26.13;20.40;;;13.90;66.10;;;;;;5017618;28;20103;-81
2022/03/21 11:48:22;;;;;;;;;;;13.90;66.10;;;;;;5032904;28;20057;-81
2022/03/21 11:51:06;;;;;;;24.48;19.05;;;13.90;66.10;;;;;;5034617;28;19925;-81
2022/03/21 11:53:33;;;;;;;22.65;19.17;;;14.00;66.20;;;;;;5034814;28;20418;-81
2022/03/21 11:56:01;;;;;;;24.80;19.05;;;14.00;66.20;;;;;;5034991;28;20049;-81
2022/03/21 11:58:40;;;;;;;26.42;20.23;;;14.10;66.20;;;;;;5035027;28;20128;-81
2022/03/21 12:01:20;;;;;;;24.27;18.80;;;14.20;66.20;;;;;;5033925;28;20049;-81
2022/03/21 12:03:48;;;;;;;21.98;17.58;;;14.40;66.10;;;;;;5017253;28;20429;-81
2022/03/21 12:06:30;;;;;;;24.58;18.38;;;14.40;66.00;;;;;;5034773;28;20056;-81
2022/03/21 12:08:59;;;;;;;23.08;17.45;;;14.50;65.90;;;;;;5036796;28;20179;-80
2022/03/21 12:11:38;;;;;;;22.88;17.75;;;14.60;65.80;;;;;;5034762;28;20042;-80
2022/03/21 12:14:29;;;;;;;22.20;17.35;;;14.70;65.70;;;;;;5033267;28;20053;-81
2022/03/21 12:17:02;;;;;;;25.05;17.73;;;14.90;65.40;;;;;;5034201;28;20055;-80
2022/03/21 12:22:27;;;;;;;21.52;16.98;;;15.00;65.10;;;;;;5034535;28;20068;-80
2022/03/21 12:24:57;;;;;;;22.50;17.58;;;15.20;64.90;;;;;;5034191;28;20045;-81
2022/03/21 12:27:34;;;;;;;22.35;17.98;;;15.30;64.70;;;;;;5034900;28;20084;-80
2022/03/21 12:30:20;;;;;;;24.73;18.10;;;15.40;64.40;;;;;;5040111;28;20061;-80
2022/03/21 12:33:07;;;;;;;27.20;16.95;;;15.50;64.10;;;;;;5040067;28;20556;-80
2022/03/21 12:35:40;;;;;;;19.55;16.65;;;15.60;63.80;;;;;;5035733;28;20053;-81
2022/03/21 12:38:34;;;;;;;20.48;16.45;;;15.70;63.60;;;;;;5038364;28;20045;-80
2022/03/21 12:41:04;;;;;;;22.00;16.25;;;15.80;63.40;;;;;;5038190;28;20079;-81
2022/03/21 12:44:00;;;;;;;19.92;15.30;;;15.90;63.10;;;;;;5038335;28;20056;-81
2022/03/21 12:46:28;;;;;;;18.52;15.20;;;16.00;62.90;;;;;;5037842;28;20048;-81
2022/03/21 12:49:01;;;;;;;19.77;15.15;;;16.10;62.80;;;;;;5036022;28;20060;-81
2022/03/21 12:51:34;;;;;;;22.60;15.75;;;16.20;62.50;;;;;;5035489;28;20045;-81
2022/03/21 12:54:19;;;;;;;22.80;15.30;;;16.30;62.30;;;;;;5048089;28;20045;-80
2022/03/21 12:56:46;;;;;;;20.42;15.05;;;16.40;62.10;;;;;;5039427;28;20521;-81
2022/03/21 12:59:19;;;;;;;19.10;15.73;;;16.50;61.90;;;;;;5037692;28;20050;-81
2022/03/21 13:01:46;;;;;;;22.35;16.48;;;16.60;61.70;;;;;;5038208;28;20465;-80
2022/03/21 13:12:35;;;;;;;17.92;14.80;;;16.90;61.20;;;;;;5033690;28;20124;-81
2022/03/21 13:15:05;;;;;;;21.90;16.38;;;16.90;61.00;;;;;;5039462;28;20053;-81
2022/03/21 13:17:57;;;;;;;18.75;15.60;;;17.00;60.90;;;;;;5037783;28;20056;-80